Time;durP1;ratioP1;P1;durP2;ratioP2;P2;SDS_P1;SDS_P2;PMS_P1;PMS_P2;Temp;Humidity;BMP_temperature;BMP_pressure;BME280_temperature;BME280_humidity;BME280_pressure;Samples;Min_cycle;Max_cycle;Signal;HPM_P1;HPM_P2
2022/04/27 00:01:52;;;;;;;7.30;4.50;;;;;;;;;;4921690;29;130353;-81
2022/04/27 00:04:18;;;;;;;10.43;4.68;;;;;;;;;;4939758;29;20020;-83
2022/04/27 00:06:43;;;;;;;8.38;4.65;;;;;;;;;;4926511;29;20040;-82
2022/04/27 00:09:08;;;;;;;8.77;5.03;;;;;;;;;;4925348;29;20472;-81
2022/04/27 00:11:33;;;;;;;6.95;4.63;;;;;;;;;;4919193;29;20028;-82
2022/04/27 00:14:00;;;;;;;5.32;3.63;;;;;;;;;;4917585;29;20012;-82
2022/04/27 00:16:26;;;;;;;6.47;4.38;;;;;;;;;;4916963;29;20083;-78
2022/04/27 00:18:51;;;;;;;6.25;4.03;;;;;;;;;;4917379;29;20483;-83
2022/04/27 00:21:17;;;;;;;6.80;4.05;;;;;;;;;;4917538;29;20032;-80
2022/04/27 00:23:43;;;;;;;6.30;4.18;;;;;;;;;;4916721;29;20519;-82
2022/04/27 00:26:09;;;;;;;6.50;3.90;;;;;;;;;;4917439;29;20032;-81
2022/04/27 00:28:34;;;;;;;7.97;4.22;;;;;;;;;;4916202;29;20171;-80
2022/04/27 00:30:59;;;;;;;6.80;3.65;;;;;;;;;;4917687;29;20516;-82
2022/04/27 00:33:25;;;;;;;7.47;4.72;;;;;;;;;;4917607;29;20444;-83
2022/04/27 00:35:51;;;;;;;7.63;4.40;;;;;;;;;;4917579;29;20072;-86
2022/04/27 00:38:16;;;;;;;7.40;4.53;;;;;;;;;;4917412;29;20675;-86
2022/04/27 00:40:41;;;;;;;7.55;4.18;;;;;;;;;;4917166;29;20031;-85
2022/04/27 00:43:06;;;;;;;8.48;4.82;;;;;;;;;;4916653;29;20020;-83
2022/04/27 00:45:32;;;;;;;9.05;4.75;;;;;;;;;;4917322;29;20469;-85
2022/04/27 00:47:57;;;;;;;9.77;4.70;;;;;;;;;;4917327;29;20031;-86
2022/04/27 00:50:22;;;;;;;10.85;5.07;;;;;;;;;;4916094;29;20017;-85
2022/04/27 00:52:48;;;;;;;8.23;4.90;;;;;;;;;;4915522;29;20020;-85
2022/04/27 00:55:13;;;;;;;8.27;4.60;;;;;;;;;;4932586;29;20028;-86
2022/04/27 00:57:39;;;;;;;8.15;4.40;;;;;;;;;;4916201;29;20492;-81
2022/04/27 01:00:05;;;;;;;9.18;4.70;;;;;;;;;;4917527;29;20035;-85
2022/04/27 01:02:30;;;;;;;8.07;4.75;;;;;;;;;;4916209;29;20042;-81
2022/04/27 01:04:56;;;;;;;11.55;4.82;;;;;;;;;;4916720;29;20024;-83
2022/04/27 01:07:22;;;;;;;10.25;4.70;;;;;;;;;;4915295;29;20032;-80
2022/04/27 01:09:47;;;;;;;9.82;4.85;;;;;;;;;;4916644;29;20507;-81
2022/04/27 01:12:12;;;;;;;11.30;5.13;;;;;;;;;;4916414;29;20024;-83
2022/04/27 01:14:41;;;;;;;10.63;5.10;;;;;;;;;;4916269;29;20035;-84
2022/04/27 01:17:07;;;;;;;9.45;4.95;;;;;;;;;;4915312;29;20059;-82
2022/04/27 01:19:32;;;;;;;7.78;4.90;;;;;;;;;;4915488;29;20438;-81
2022/04/27 01:21:58;;;;;;;8.27;5.32;;;;;;;;;;4916726;29;20480;-82
2022/04/27 01:24:26;;;;;;;9.98;4.80;;;;;;;;;;4916397;29;20108;-83
2022/04/27 01:26:52;;;;;;;8.15;4.45;;;;;;;;;;4915107;29;20083;-85
2022/04/27 01:29:18;;;;;;;9.85;4.97;;;;;;;;;;4916418;29;20108;-83
2022/04/27 01:31:44;;;;;;;10.73;4.88;;;;;;;;;;4914609;29;20107;-83
2022/04/27 01:34:10;;;;;;;7.60;4.55;;;;;;;;;;4916116;29;20024;-82
2022/04/27 01:36:35;;;;;;;8.73;4.93;;;;;;;;;;4914710;29;20028;-83
2022/04/27 01:39:01;;;;;;;6.68;4.18;;;;;;;;;;4916010;29;20067;-83
2022/04/27 01:41:26;;;;;;;8.25;4.55;;;;;;;;;;4915185;29;20028;-83
2022/04/27 01:43:51;;;;;;;7.65;4.32;;;;;;;;;;4915955;29;20495;-84
2022/04/27 01:46:16;;;;;;;7.78;4.65;;;;;;;;;;4915871;29;20662;-83
2022/04/27 01:48:41;;;;;;;9.25;4.60;;;;;;;;;;4917948;29;20031;-83
2022/04/27 01:51:09;;;;;;;7.60;4.38;;;;;;;;;;4921019;29;20016;-85
2022/04/27 01:56:18;;;;;;;7.82;4.25;;;;;;;;;;4923053;29;20023;-82
2022/04/27 01:58:44;;;;;;;9.18;4.25;;;;;;;;;;4922288;29;20020;-85
2022/04/27 02:01:11;;;;;;;9.60;4.35;;;;;;;;;;4920480;29;20025;-82
2022/04/27 02:03:36;;;;;;;9.52;5.40;;;;;;;;;;4917188;29;20024;-81
2022/04/27 02:06:02;;;;;;;8.35;4.90;;;;;;;;;;4916273;29;20064;-79
2022/04/27 02:08:27;;;;;;;9.43;5.18;;;;;;;;;;4915448;29;20030;-80
2022/04/27 02:10:52;;;;;;;10.43;4.35;;;;;;;;;;4914565;29;20063;-81
2022/04/27 02:13:17;;;;;;;9.95;4.88;;;;;;;;;;4914956;29;20020;-83
2022/04/27 02:15:43;;;;;;;8.30;4.55;;;;;;;;;;4915496;29;20020;-84
2022/04/27 02:18:08;;;;;;;8.13;4.50;;;;;;;;;;4915598;29;20031;-83
2022/04/27 02:20:34;;;;;;;7.65;4.55;;;;;;;;;;4915915;29;20500;-81
2022/04/27 02:22:59;;;;;;;7.35;4.68;;;;;;;;;;4914094;29;20052;-82
2022/04/27 02:25:25;;;;;;;8.27;4.55;;;;;;;;;;4914114;29;20024;-80
2022/04/27 02:27:50;;;;;;;7.82;4.70;;;;;;;;;;4914301;29;20028;-81
2022/04/27 02:30:16;;;;;;;7.68;3.90;;;;;;;;;;4914408;29;20026;-83
2022/04/27 02:32:41;;;;;;;8.00;4.32;;;;;;;;;;4914133;29;20060;-81
2022/04/27 02:35:09;;;;;;;8.25;4.45;;;;;;;;;;4915378;29;20016;-84
2022/04/27 02:37:35;;;;;;;8.27;4.57;;;;;;;;;;4915575;29;20480;-83
2022/04/27 02:40:01;;;;;;;9.65;4.82;;;;;;;;;;4915012;29;20115;-80
2022/04/27 02:42:26;;;;;;;12.50;5.40;;;;;;;;;;4930369;29;20116;-83
2022/04/27 02:44:52;;;;;;;10.77;5.88;;;;;;;;;;4913946;29;20034;-84
2022/04/27 02:47:18;;;;;;;10.65;5.38;;;;;;;;;;4915799;29;20388;-85
2022/04/27 02:52:27;;;;;;;10.73;5.45;;;;;;;;;;4915550;29;20148;-81
2022/04/27 02:54:52;;;;;;;10.25;4.50;;;;;;;;;;4914087;29;20107;-81
2022/04/27 02:57:17;;;;;;;8.93;4.50;;;;;;;;;;4915825;29;20094;-80
2022/04/27 02:59:43;;;;;;;9.23;5.13;;;;;;;;;;4916293;29;20087;-80
2022/04/27 03:02:08;;;;;;;7.65;4.00;;;;;;;;;;4915709;29;20039;-79
2022/04/27 03:04:34;;;;;;;9.13;5.25;;;;;;;;;;4917596;29;20048;-80
2022/04/27 03:06:59;;;;;;;7.20;4.68;;;;;;;;;;4949978;23;20044;-78
2022/04/27 03:09:24;;;;;;;8.43;5.15;;;;;;;;;;4948477;29;20476;-80
2022/04/27 03:11:50;;;;;;;8.50;4.40;;;;;;;;;;4943061;29;20023;-79
2022/04/27 03:14:15;;;;;;;8.48;4.82;;;;;;;;;;4944282;29;20020;-80
2022/04/27 03:16:40;;;;;;;8.25;4.70;;;;;;;;;;4940056;29;20030;-78
2022/04/27 03:19:06;;;;;;;7.55;4.57;;;;;;;;;;4944131;29;20119;-78
2022/04/27 03:21:32;;;;;;;9.43;4.70;;;;;;;;;;4945790;29;20027;-77
2022/04/27 03:23:58;;;;;;;7.85;4.30;;;;;;;;;;4940596;29;20535;-81
2022/04/27 03:26:23;;;;;;;7.82;4.18;;;;;;;;;;4942483;29;20062;-78
2022/04/27 03:28:48;;;;;;;7.63;4.45;;;;;;;;;;4952386;29;20024;-78
2022/04/27 03:31:13;;;;;;;9.15;4.43;;;;;;;;;;4945168;29;20097;-78
2022/04/27 03:33:39;;;;;;;8.50;4.40;;;;;;;;;;4938912;29;20053;-77
2022/04/27 03:36:05;;;;;;;9.48;4.65;;;;;;;;;;4936462;29;20042;-80
2022/04/27 03:38:30;;;;;;;6.90;4.18;;;;;;;;;;4936195;29;20024;-78
2022/04/27 03:40:55;;;;;;;12.48;4.53;;;;;;;;;;4935991;29;20365;-79
2022/04/27 03:43:20;;;;;;;8.90;5.05;;;;;;;;;;4935628;29;20019;-77
2022/04/27 03:45:46;;;;;;;7.75;4.90;;;;;;;;;;4937311;29;20032;-79
2022/04/27 03:48:11;;;;;;;12.20;4.80;;;;;;;;;;4937647;29;20059;-80
2022/04/27 03:50:36;;;;;;;7.50;4.40;;;;;;;;;;4952675;28;20118;-81
2022/04/27 03:53:01;;;;;;;6.95;4.00;;;;;;;;;;4936636;29;20529;-79
2022/04/27 03:55:28;;;;;;;8.02;4.30;;;;;;;;;;4935585;29;20027;-81
2022/04/27 03:57:54;;;;;;;7.25;4.30;;;;;;;;;;4937442;29;20016;-80
2022/04/27 04:00:19;;;;;;;8.35;4.20;;;;;;;;;;4937205;29;20111;-80
2022/04/27 04:02:44;;;;;;;9.13;4.22;;;;;;;;;;4936282;29;20458;-79
2022/04/27 04:05:09;;;;;;;8.93;3.97;;;;;;;;;;4939378;28;20035;-80
2022/04/27 04:07:34;;;;;;;7.05;4.00;;;;;;;;;;4934248;29;20031;-80
2022/04/27 04:10:00;;;;;;;6.80;3.90;;;;;;;;;;4937298;29;20409;-80
2022/04/27 04:12:25;;;;;;;8.00;4.60;;;;;;;;;;4936682;29;20023;-80
2022/04/27 04:14:51;;;;;;;8.43;4.32;;;;;;;;;;4935931;29;20047;-80
2022/04/27 04:17:17;;;;;;;8.60;4.68;;;;;;;;;;4935755;29;20023;-80
2022/04/27 04:19:42;;;;;;;12.07;5.18;;;;;;;;;;4951142;29;20038;-80
2022/04/27 04:22:08;;;;;;;8.65;4.47;;;;;;;;;;4935003;29;20449;-78
2022/04/27 04:24:33;;;;;;;8.70;4.60;;;;;;;;;;4933461;29;20028;-78
2022/04/27 04:29:42;;;;;;;11.00;4.15;;;;;;;;;;4935768;29;20502;-80
2022/04/27 04:32:08;;;;;;;12.98;4.47;;;;;;;;;;4938041;29;20027;-79
2022/04/27 04:34:33;;;;;;;9.25;5.15;;;;;;;;;;4934131;29;20489;-80
2022/04/27 04:36:58;;;;;;;11.15;5.13;;;;;;;;;;4935821;29;20027;-81
2022/04/27 04:39:23;;;;;;;8.73;5.00;;;;;;;;;;4934738;29;20012;-79
2022/04/27 04:41:49;;;;;;;12.25;5.65;;;;;;;;;;4933131;29;20023;-80
2022/04/27 04:44:14;;;;;;;8.00;5.03;;;;;;;;;;4941059;28;20023;-80
2022/04/27 04:46:39;;;;;;;14.93;5.68;;;;;;;;;;4935905;29;20020;-80
2022/04/27 04:49:05;;;;;;;11.05;5.07;;;;;;;;;;4935560;29;20026;-80
2022/04/27 04:51:30;;;;;;;10.52;5.78;;;;;;;;;;4933511;29;20028;-80
2022/04/27 04:53:55;;;;;;;9.75;5.20;;;;;;;;;;4935907;29;20460;-81
2022/04/27 04:56:21;;;;;;;13.23;5.57;;;;;;;;;;4934024;29;20015;-82
2022/04/27 04:58:46;;;;;;;8.80;5.15;;;;;;;;;;4935138;29;20034;-81
2022/04/27 05:01:12;;;;;;;15.57;5.10;;;;;;;;;;4935268;29;20472;-80
2022/04/27 05:03:38;;;;;;;9.25;5.72;;;;;;;;;;4941546;29;20070;-80
2022/04/27 05:06:03;;;;;;;9.98;5.68;;;;;;;;;;4933917;29;20496;-80
2022/04/27 05:08:28;;;;;;;11.23;7.13;;;;;;;;;;4948805;29;20027;-81
2022/04/27 05:10:54;;;;;;;14.20;6.82;;;;;;;;;;4935016;29;20023;-81
2022/04/27 05:13:19;;;;;;;9.30;6.30;;;;;;;;;;4934700;29;20534;-80
2022/04/27 05:15:44;;;;;;;11.88;6.40;;;;;;;;;;4935145;29;20031;-81
2022/04/27 05:18:10;;;;;;;13.50;5.97;;;;;;;;;;4935329;29;20032;-81
2022/04/27 05:20:37;;;;;;;15.27;6.63;;;;;;;;;;4934894;29;20102;-82
2022/04/27 05:23:02;;;;;;;10.95;5.90;;;;;;;;;;4932980;29;20479;-80
2022/04/27 05:25:27;;;;;;;16.23;5.80;;;;;;;;;;4934908;29;20027;-81
2022/04/27 05:27:52;;;;;;;10.52;5.47;;;;;;;;;;4933602;29;20095;-80
2022/04/27 05:33:02;;;;;;;10.90;5.35;;;;;;;;;;4934443;29;20118;-80
2022/04/27 05:35:27;;;;;;;8.48;5.10;;;;;;;;;;4934646;29;20051;-80
2022/04/27 05:37:52;;;;;;;11.23;5.45;;;;;;;;;;4933370;29;20455;-81
2022/04/27 05:40:17;;;;;;;12.85;5.43;;;;;;;;;;4934920;29;20031;-80
2022/04/27 05:42:43;;;;;;;10.52;5.93;;;;;;;;;;4934162;29;20023;-80
2022/04/27 05:45:09;;;;;;;10.40;6.20;;;;;;;;;;4933571;29;20259;-80
2022/04/27 05:47:35;;;;;;;12.30;5.32;;;;;;;;;;4934070;29;20125;-81
2022/04/27 05:50:00;;;;;;;10.48;5.38;;;;;;;;;;4943853;28;20026;-78
2022/04/27 05:52:25;;;;;;;11.02;5.40;;;;;;;;;;4934387;29;20020;-79
2022/04/27 05:54:51;;;;;;;15.45;5.43;;;;;;;;;;4933931;29;20083;-81
2022/04/27 05:57:17;;;;;;;15.02;5.13;;;;;;;;;;4933891;29;20022;-81
2022/04/27 05:59:43;;;;;;;10.43;5.20;;;;;;;;;;4934483;29;20125;-80
2022/04/27 06:02:08;;;;;;;9.63;4.50;;;;;;;;;;4932019;29;20028;-82
2022/04/27 06:04:34;;;;;;;11.10;4.90;;;;;;;;;;4935182;29;20046;-80
2022/04/27 06:06:59;;;;;;;7.75;4.30;;;;;;;;;;4933185;29;20471;-81
2022/04/27 06:09:24;;;;;;;16.58;5.65;;;;;;;;;;4934008;29;20096;-81
2022/04/27 06:11:49;;;;;;;7.38;4.45;;;;;;;;;;4934226;29;20044;-80
2022/04/27 06:14:14;;;;;;;11.80;4.40;;;;;;;;;;4934121;29;20094;-79
2022/04/27 06:16:40;;;;;;;9.15;4.10;;;;;;;;;;4935995;29;20031;-80
2022/04/27 06:19:05;;;;;;;8.73;4.20;;;;;;;;;;4935237;29;20074;-79
2022/04/27 06:21:33;;;;;;;10.00;4.28;;;;;;;;;;4933465;29;20101;-80
2022/04/27 06:24:00;;;;;;;9.60;4.53;;;;;;;;;;4931491;29;20472;-81
2022/04/27 06:26:25;;;;;;;9.07;4.07;;;;;;;;;;4932585;29;20102;-80
2022/04/27 06:28:51;;;;;;;6.65;3.67;;;;;;;;;;4932929;29;20476;-79
2022/04/27 06:31:17;;;;;;;8.68;3.95;;;;;;;;;;4932560;29;20024;-79
2022/04/27 06:33:42;;;;;;;6.47;4.25;;;;;;;;;;4934996;29;20464;-79
2022/04/27 06:36:07;;;;;;;8.43;5.07;;;;;;;;;;4957307;28;20484;-79
2022/04/27 06:38:32;;;;;;;9.93;4.28;;;;;;;;;;4937358;29;20037;-79
2022/04/27 06:40:58;;;;;;;7.28;4.00;;;;;;;;;;4939298;29;20046;-79
2022/04/27 06:43:23;;;;;;;7.22;4.40;;;;;;;;;;4943950;29;20027;-80
2022/04/27 06:45:51;;;;;;;11.20;5.07;;;;;;;;;;4940899;29;20083;-79
2022/04/27 06:48:17;;;;;;;10.45;4.70;;;;;;;;;;4951194;28;20078;-80
2022/04/27 06:50:42;;;;;;;8.02;4.63;;;;;;;;;;4945737;29;20027;-78
2022/04/27 06:53:09;;;;;;;9.23;4.43;;;;;;;;;;4948806;29;20066;-80
2022/04/27 06:55:34;;;;;;;9.40;4.78;;;;;;;;;;4943949;29;20073;-80
2022/04/27 06:57:59;;;;;;;10.70;4.72;;;;;;;;;;4944537;29;20020;-80
2022/04/27 07:00:25;;;;;;;8.75;4.85;;;;;;;;;;4947185;29;20028;-79
2022/04/27 07:02:51;;;;;;;11.45;4.93;;;;;;;;;;4941226;29;20016;-80
2022/04/27 07:05:17;;;;;;;8.93;4.43;;;;;;;;;;4941397;29;20027;-80
2022/04/27 07:07:46;;;;;;;8.32;4.35;;;;;;;;;;4939620;29;20051;-80
2022/04/27 07:10:11;;;;;;;;;;;;;;;;;;4943512;29;20031;-79
2022/04/27 07:12:37;;;;;;;10.70;4.65;;;;;;;;;;4939895;29;19907;-79
2022/04/27 07:15:02;;;;;;;7.55;4.32;;;;;;;;;;4940201;29;20540;-78
2022/04/27 07:17:28;;;;;;;9.40;4.93;;;;;;;;;;4937134;29;20035;-79
2022/04/27 07:19:53;;;;;;;12.25;4.88;;;;;;;;;;4938483;29;20051;-79
2022/04/27 07:22:18;;;;;;;7.68;4.80;;;;;;;;;;4938164;29;20059;-79
2022/04/27 07:24:44;;;;;;;9.45;4.63;;;;;;;;;;4937217;29;20538;-79
2022/04/27 07:27:09;;;;;;;12.95;4.63;;;;;;;;;;4938098;29;20463;-80
2022/04/27 07:29:35;;;;;;;9.18;4.72;;;;;;;;;;4937345;29;20387;-79
2022/04/27 07:32:00;;;;;;;8.23;5.10;;;;;;;;;;4938384;29;20151;-80
2022/04/27 07:34:26;;;;;;;15.10;5.00;;;;;;;;;;4937798;29;20020;-80
2022/04/27 07:36:51;;;;;;;7.53;4.97;;;;;;;;;;4936932;29;20039;-79
2022/04/27 07:39:16;;;;;;;7.68;4.65;;;;;;;;;;4938371;29;20027;-79
2022/04/27 07:41:45;;;;;;;7.28;4.50;;;;;;;;;;4933149;29;20036;-80
2022/04/27 07:44:10;;;;;;;11.48;4.80;;;;;;;;;;4935798;29;20030;-80
2022/04/27 07:46:35;;;;;;;8.93;4.78;;;;;;;;;;4938188;29;20020;-79
2022/04/27 07:49:00;;;;;;;10.43;4.43;;;;;;;;;;4941979;29;20463;-80
2022/04/27 07:51:25;;;;;;;8.20;4.32;;;;;;;;;;4936530;29;20099;-79
2022/04/27 07:53:51;;;;;;;11.18;5.28;;;;;;;;;;4936806;29;20055;-79
2022/04/27 07:56:16;;;;;;;8.07;4.65;;;;;;;;;;4937906;29;20024;-79
2022/04/27 07:58:41;;;;;;;8.10;5.03;;;;;;;;;;4937234;29;20105;-79
2022/04/27 08:01:06;;;;;;;9.50;4.68;;;;;;;;;;4936914;29;20043;-79
2022/04/27 08:03:32;;;;;;;11.95;5.07;;;;;;;;;;4934951;29;20023;-79
2022/04/27 08:06:03;;;;;;;11.48;5.43;;;;;;;;;;4937146;29;20047;-79
2022/04/27 08:08:28;;;;;;;12.00;5.07;;;;;;;;;;4937526;29;20110;-79
2022/04/27 08:10:53;;;;;;;9.35;5.20;;;;;;;;;;4940271;29;20051;-79
2022/04/27 08:13:18;;;;;;;8.98;4.97;;;;;;;;;;4932727;29;20075;-80
2022/04/27 08:15:44;;;;;;;9.75;4.93;;;;;;;;;;4944408;28;20023;-79
2022/04/27 08:18:09;;;;;;;8.00;4.75;;;;;;;;;;4936376;29;20505;-79
2022/04/27 08:23:29;;;;;;;11.20;5.28;;;;;;;;;;4936640;29;20073;-78
2022/04/27 08:25:56;;;;;;;8.18;4.82;;;;;;;;;;4936593;29;20106;-77
2022/04/27 08:28:21;;;;;;;8.23;4.78;;;;;;;;;;4936426;29;20032;-78
2022/04/27 08:30:47;;;;;;;9.80;5.45;;;;;;;;;;4932008;29;20448;-79
2022/04/27 08:33:13;;;;;;;12.93;5.80;;;;;;;;;;4936618;29;20019;-79
2022/04/27 08:35:39;;;;;;;9.77;4.82;;;;;;;;;;4933284;29;20083;-79
2022/04/27 08:38:05;;;;;;;10.87;5.20;;;;;;;;;;4935966;29;20031;-79
2022/04/27 08:40:30;;;;;;;9.05;4.47;;;;;;;;;;4935957;29;20265;-77
2022/04/27 08:43:01;;;;;;;8.63;5.03;;;;;;;;;;4935803;29;20027;-79
2022/04/27 08:45:26;;;;;;;8.88;4.55;;;;;;;;;;4931246;29;20024;-80
2022/04/27 08:47:52;;;;;;;11.10;4.85;;;;;;;;;;4931818;29;20569;-80
2022/04/27 08:50:18;;;;;;;11.07;5.22;;;;;;;;;;4934585;29;20063;-80
2022/04/27 08:52:44;;;;;;;10.05;5.05;;;;;;;;;;4928369;29;20116;-80
2022/04/27 08:55:09;;;;;;;10.20;4.90;;;;;;;;;;4936107;29;20081;-80
2022/04/27 08:57:35;;;;;;;7.20;4.57;;;;;;;;;;4934962;29;20027;-80
2022/04/27 09:00:00;;;;;;;8.27;4.85;;;;;;;;;;4933332;29;20016;-78
2022/04/27 09:02:29;;;;;;;12.68;6.07;;;;;;;;;;4935846;29;20039;-80
2022/04/27 09:05:05;;;;;;;8.23;4.90;;;;;;;;;;4933316;29;20015;-80
2022/04/27 09:07:34;;;;;;;9.85;4.47;;;;;;;;;;4929332;29;20040;-80
2022/04/27 09:09:59;;;;;;;9.70;4.47;;;;;;;;;;4928526;29;20059;-78
2022/04/27 09:12:25;;;;;;;12.13;4.70;;;;;;;;;;4935638;29;20487;-79
2022/04/27 09:14:50;;;;;;;6.80;4.57;;;;;;;;;;4931101;29;20110;-78
2022/04/27 09:23:21;;;;;;;8.13;3.95;;;;;;;;;;4934122;29;20130;-79
2022/04/27 09:25:47;;;;;;;10.25;4.07;;;;;;;;;;4935443;29;20023;-78
2022/04/27 09:28:12;;;;;;;7.93;3.97;;;;;;;;;;4934063;29;20545;-78
2022/04/27 09:30:37;;;;;;;11.57;4.63;;;;;;;;;;4919655;29;20412;-76
2022/04/27 09:33:03;;;;;;;6.55;4.30;;;;;;;;;;4930157;29;20502;-78
2022/04/27 09:35:32;;;;;;;8.90;4.25;;;;;;;;;;4929468;29;20043;-76
2022/04/27 09:38:10;;;;;;;6.60;3.67;;;;;;;;;;4927092;29;20028;-77
2022/04/27 09:40:43;;;;;;;8.65;3.35;;;;;;;;;;4930695;29;20032;-79
2022/04/27 09:43:09;;;;;;;8.65;3.45;;;;;;;;;;4930425;28;20098;-79
2022/04/27 09:45:34;;;;;;;5.97;3.58;;;;;;;;;;4930423;29;20475;-79
2022/04/27 09:48:03;;;;;;;7.55;2.90;;;;;;;;;;4930513;29;20024;-76
2022/04/27 09:50:29;;;;;;;;;;;;;;;;;;4948711;29;20023;-79
2022/04/27 09:52:55;;;;;;;7.63;3.50;;;;;;;;;;4935054;29;19917;-80
2022/04/27 09:55:20;;;;;;;7.63;3.95;;;;;;;;;;4941108;28;20042;-79
2022/04/27 09:57:48;;;;;;;8.05;3.13;;;;;;;;;;4930448;29;20048;-79
2022/04/27 10:00:14;;;;;;;9.83;4.60;;;;;;;;;;4931368;29;20031;-79
2022/04/27 10:02:43;;;;;;;6.63;3.60;;;;;;;;;;4933401;29;20023;-79
2022/04/27 10:05:09;;;;;;;9.27;3.50;;;;;;;;;;4935096;29;20020;-79
2022/04/27 10:07:34;;;;;;;7.85;3.72;;;;;;;;;;4934727;29;20126;-78
2022/04/27 10:10:00;;;;;;;7.57;3.95;;;;;;;;;;4949278;28;20053;-79
2022/04/27 10:12:25;;;;;;;9.20;4.10;;;;;;;;;;4934245;29;20023;-78
2022/04/27 10:14:50;;;;;;;8.63;2.95;;;;;;;;;;4933435;29;20360;-78
2022/04/27 10:17:16;;;;;;;4.47;2.65;;;;;;;;;;4934491;29;20024;-79
2022/04/27 10:19:48;;;;;;;7.63;3.47;;;;;;;;;;4934350;29;20028;-78
2022/04/27 10:22:24;;;;;;;5.15;3.10;;;;;;;;;;4933673;29;20027;-79
2022/04/27 10:24:50;;;;;;;7.68;3.30;;;;;;;;;;4933363;29;20020;-78
2022/04/27 10:27:19;;;;;;;8.57;3.38;;;;;;;;;;4937154;29;20497;-79
2022/04/27 10:29:46;;;;;;;8.75;3.25;;;;;;;;;;4936277;29;20020;-79
2022/04/27 10:32:11;;;;;;;5.45;3.10;;;;;;;;;;4935554;29;20031;-79
2022/04/27 10:34:36;;;;;;;9.45;3.70;;;;;;;;;;4931087;29;20087;-77
2022/04/27 10:37:03;;;;;;;4.75;2.50;;;;;;;;;;4935360;29;20110;-77
2022/04/27 10:39:28;;;;;;;5.57;3.00;;;;;;;;;;4934563;29;20024;-78
2022/04/27 10:41:56;;;;;;;5.65;3.05;;;;;;;;;;4934629;29;20043;-77
2022/04/27 10:44:41;;;;;;;5.32;2.70;;;;;;;;;;4937432;29;20052;-79
2022/04/27 10:47:19;;;;;;;4.80;2.42;;;;;;;;;;4945805;29;20038;-80
2022/04/27 10:49:48;;;;;;;9.05;2.88;;;;;;;;;;4949822;29;20024;-78
2022/04/27 10:52:14;;;;;;;7.75;2.97;;;;;;;;;;4949862;29;20099;-79
2022/04/27 10:54:40;;;;;;;7.03;2.97;;;;;;;;;;4951303;29;20023;-78
2022/04/27 10:57:14;;;;;;;6.88;2.72;;;;;;;;;;4948212;29;20024;-79
2022/04/27 10:59:43;;;;;;;10.85;2.85;;;;;;;;;;4945457;29;20035;-79
2022/04/27 11:02:27;;;;;;;7.28;3.13;;;;;;;;;;4944078;29;20031;-78
2022/04/27 11:04:53;;;;;;;3.78;2.50;;;;;;;;;;4921546;29;20023;-77
2022/04/27 11:07:33;;;;;;;4.68;2.85;;;;;;;;;;4940226;28;20027;-79
2022/04/27 11:10:15;;;;;;;5.60;2.92;;;;;;;;;;4936933;29;20024;-79
2022/04/27 11:12:41;;;;;;;9.50;2.78;;;;;;;;;;4919492;29;20027;-81
2022/04/27 11:15:07;;;;;;;5.30;2.75;;;;;;;;;;4935357;29;20027;-77
2022/04/27 11:17:35;;;;;;;7.05;2.75;;;;;;;;;;4933632;29;20475;-78
2022/04/27 11:20:03;;;;;;;7.85;2.90;;;;;;;;;;4934883;29;20103;-77
2022/04/27 11:22:35;;;;;;;5.40;2.67;;;;;;;;;;4935301;29;20023;-79
2022/04/27 11:25:00;;;;;;;6.32;2.55;;;;;;;;;;4935277;29;20079;-79
2022/04/27 11:27:27;;;;;;;5.03;2.17;;;;;;;;;;4936150;29;20028;-79
2022/04/27 11:29:53;;;;;;;5.55;2.67;;;;;;;;;;4928281;29;20507;-77
2022/04/27 11:32:18;;;;;;;5.10;2.80;;;;;;;;;;4935750;29;20047;-79
2022/04/27 11:34:48;;;;;;;6.55;2.55;;;;;;;;;;4942333;29;20026;-79
2022/04/27 11:37:15;;;;;;;5.15;2.63;;;;;;;;;;4939124;29;20079;-80
2022/04/27 11:39:40;;;;;;;9.90;3.10;;;;;;;;;;4938210;29;20030;-79
2022/04/27 11:42:05;;;;;;;5.17;3.07;;;;;;;;;;4938952;29;20035;-78
2022/04/27 11:44:31;;;;;;;6.32;3.17;;;;;;;;;;4936700;29;20265;-78
2022/04/27 11:46:57;;;;;;;4.00;2.47;;;;;;;;;;4938548;29;20019;-79
2022/04/27 11:49:23;;;;;;;7.70;3.42;;;;;;;;;;4937214;29;20102;-78
2022/04/27 11:51:49;;;;;;;7.38;2.90;;;;;;;;;;4937249;29;20023;-78
2022/04/27 11:54:27;;;;;;;7.53;2.67;;;;;;;;;;4937142;29;20074;-79
2022/04/27 11:56:56;;;;;;;6.75;3.00;;;;;;;;;;4937183;29;20094;-78
2022/04/27 11:59:21;;;;;;;6.43;3.58;;;;;;;;;;4937156;29;20071;-78
2022/04/27 12:01:50;;;;;;;4.95;2.47;;;;;;;;;;4937114;29;20032;-79
2022/04/27 12:04:16;;;;;;;7.40;3.22;;;;;;;;;;4936709;29;20106;-79
2022/04/27 12:06:41;;;;;;;5.70;3.30;;;;;;;;;;4937179;29;20463;-77
2022/04/27 12:09:06;;;;;;;4.63;2.83;;;;;;;;;;4936597;29;20123;-76
2022/04/27 12:11:32;;;;;;;6.43;3.20;;;;;;;;;;4936327;29;20027;-77
2022/04/27 12:13:58;;;;;;;7.65;2.60;;;;;;;;;;4936259;29;20257;-79
2022/04/27 12:16:30;;;;;;;5.38;3.17;;;;;;;;;;4937080;29;20086;-78
2022/04/27 12:18:55;;;;;;;7.35;3.05;;;;;;;;;;4936895;29;20016;-79
2022/04/27 12:21:24;;;;;;;4.97;2.90;;;;;;;;;;4942195;29;20561;-78
2022/04/27 12:23:50;;;;;;;7.05;2.70;;;;;;;;;;4943457;28;20027;-77
2022/04/27 12:26:15;;;;;;;6.97;3.10;;;;;;;;;;4936315;29;20027;-79
2022/04/27 12:28:41;;;;;;;3.83;2.90;;;;;;;;;;4935506;29;20091;-78
2022/04/27 12:31:08;;;;;;;6.00;2.90;;;;;;;;;;4925454;29;20250;-79
2022/04/27 12:33:33;;;;;;;7.70;3.40;;;;;;;;;;4936392;29;20027;-78
2022/04/27 12:39:03;;;;;;;4.70;2.92;;;;;;;;;;4935176;29;20390;-78
2022/04/27 12:41:42;;;;;;;6.70;2.78;;;;;;;;;;4941241;29;20027;-78
2022/04/27 12:44:08;;;;;;;7.18;2.47;;;;;;;;;;4934327;29;20124;-77
2022/04/27 12:46:34;;;;;;;4.28;2.45;;;;;;;;;;4936299;29;20016;-79
2022/04/27 12:49:03;;;;;;;6.22;2.70;;;;;;;;;;4935419;29;20543;-79
2022/04/27 12:51:29;;;;;;;5.05;2.30;;;;;;;;;;4936456;29;20027;-79
2022/04/27 12:53:54;;;;;;;5.10;2.50;;;;;;;;;;4935088;29;20047;-78
2022/04/27 12:56:22;;;;;;;5.05;3.22;;;;;;;;;;4935380;29;20475;-77
2022/04/27 12:59:01;;;;;;;4.25;3.25;;;;;;;;;;4936660;29;20023;-79
2022/04/27 13:01:28;;;;;;;6.55;2.97;;;;;;;;;;4935938;29;20032;-78
2022/04/27 13:03:53;;;;;;;4.90;3.22;;;;;;;;;;4943490;28;20039;-79
2022/04/27 13:06:18;;;;;;;6.72;3.05;;;;;;;;;;4935176;29;20036;-78
2022/04/27 13:08:43;;;;;;;10.03;3.80;;;;;;;;;;4936387;29;20075;-79
2022/04/27 13:13:52;;;;;;;6.13;3.40;;;;;;;;;;4936654;29;20058;-79
2022/04/27 13:16:17;;;;;;;7.18;3.75;;;;;;;;;;4935955;29;20019;-79
2022/04/27 13:18:43;;;;;;;5.30;3.00;;;;;;;;;;4935857;29;20019;-79
2022/04/27 13:21:08;;;;;;;6.13;2.90;;;;;;;;;;4938996;29;20254;-79
2022/04/27 13:23:33;;;;;;;5.47;3.42;;;;;;;;;;4934570;29;20027;-79
2022/04/27 13:25:59;;;;;;;5.70;3.38;;;;;;;;;;4932713;29;20020;-78
2022/04/27 13:28:24;;;;;;;6.35;2.67;;;;;;;;;;4930542;29;20046;-80
2022/04/27 13:30:49;;;;;;;6.72;3.55;;;;;;;;;;4931686;29;20060;-81
2022/04/27 13:33:15;;;;;;;7.93;2.70;;;;;;;;;;4924235;29;20059;-79
2022/04/27 13:35:40;;;;;;;4.95;2.80;;;;;;;;;;4933818;29;20261;-78
2022/04/27 13:38:06;;;;;;;5.50;3.03;;;;;;;;;;4933194;29;20034;-78
2022/04/27 13:40:32;;;;;;;10.05;3.30;;;;;;;;;;4934191;29;20015;-79
2022/04/27 13:42:57;;;;;;;8.70;3.58;;;;;;;;;;4932315;29;20504;-79
2022/04/27 13:45:23;;;;;;;7.15;3.30;;;;;;;;;;4932982;29;20047;-77
2022/04/27 13:47:48;;;;;;;20.88;12.07;;;;;;;;;;4933442;29;20368;-79
2022/04/27 13:50:13;;;;;;;7.93;3.95;;;;;;;;;;4929566;29;20039;-79
2022/04/27 13:52:39;;;;;;;6.95;3.50;;;;;;;;;;4933527;29;20044;-78
2022/04/27 13:55:06;;;;;;;7.40;3.85;;;;;;;;;;4934560;29;20317;-77
2022/04/27 13:57:31;;;;;;;9.60;3.55;;;;;;;;;;4935022;29;20020;-79
2022/04/27 13:59:56;;;;;;;5.18;3.10;;;;;;;;;;4934658;29;20163;-78
2022/04/27 14:02:23;;;;;;;6.50;2.75;;;;;;;;;;4935048;29;20027;-78
2022/04/27 14:04:48;;;;;;;5.50;3.33;;;;;;;;;;4934710;29;20492;-79
2022/04/27 14:07:14;;;;;;;8.20;3.33;;;;;;;;;;4933334;29;20063;-79
2022/04/27 14:09:39;;;;;;;5.95;3.33;;;;;;;;;;4936098;29;20047;-78
2022/04/27 14:14:49;;;;;;;7.70;3.10;;;;;;;;;;4934153;29;20022;-79
2022/04/27 14:19:58;;;;;;;8.95;3.75;;;;;;;;;;4934136;29;20256;-78
2022/04/27 14:22:24;;;;;;;7.60;4.10;;;;;;;;;;4933903;29;20106;-77
2022/04/27 14:24:49;;;;;;;9.65;3.25;;;;;;;;;;4931253;29;20282;-78
2022/04/27 14:27:17;;;;;;;9.48;3.35;;;;;;;;;;4933629;29;20020;-78
2022/04/27 14:29:43;;;;;;;5.68;2.90;;;;;;;;;;4934283;29;20044;-78
2022/04/27 14:32:08;;;;;;;7.65;3.63;;;;;;;;;;4949112;29;20042;-78
2022/04/27 14:34:33;;;;;;;4.70;2.83;;;;;;;;;;4933318;29;20016;-78
2022/04/27 14:36:59;;;;;;;7.40;3.07;;;;;;;;;;4933683;29;20310;-78
2022/04/27 14:39:26;;;;;;;5.13;2.70;;;;;;;;;;4933945;29;20031;-78
2022/04/27 14:41:51;;;;;;;4.70;2.80;;;;;;;;;;4932336;29;20020;-77
2022/04/27 14:44:17;;;;;;;4.85;2.90;;;;;;;;;;4933270;29;20118;-77
2022/04/27 14:46:42;;;;;;;5.32;2.80;;;;;;;;;;4932525;29;20110;-78
2022/04/27 14:49:07;;;;;;;8.48;3.10;;;;;;;;;;4933525;29;20032;-77
2022/04/27 14:51:33;;;;;;;6.63;3.10;;;;;;;;;;4933590;29;20047;-78
2022/04/27 14:53:58;;;;;;;6.97;3.40;;;;;;;;;;4933465;29;20026;-78
2022/04/27 14:56:23;;;;;;;6.03;3.05;;;;;;;;;;4934242;29;20258;-77
2022/04/27 14:58:49;;;;;;;6.72;2.60;;;;;;;;;;4929983;29;20027;-77
2022/04/27 15:01:14;;;;;;;4.65;2.70;;;;;;;;;;4934485;29;20055;-77
2022/04/27 15:03:39;;;;;;;5.17;3.20;;;;;;;;;;4935951;29;20466;-78
2022/04/27 15:06:04;;;;;;;4.95;2.50;;;;;;;;;;4937210;29;20262;-77